Rock Hill, Mississippi
Current Conditions -  °F | °C
As of 7:53 AM on Thursday 27 Nov 2014 (Local Time) from KHBG Reporting Station
Clear Clear  
Wind Chill: 42°   Ceiling: Unl
Heat Index: 46°   Visibility: 10mi
Dew Point: 34°   Wind: 8mph
Humidity: 63%   Direction: 330°NNW
Pressure: 30.43"   Gusts: NA
Location:  31.1558°N, 89.5311°W
Report Text: KHBG 271353Z AUTO 33007KT 10SM CLR 08/01 A3043 RMK AO2 SLP304 T00780011
Loading
Personal Weather Stations






























Interactive Weather Map New forecast layout! Learn more

10-Day Weather Forecast

Advertisements
Track Severe Weather on mobile